createdAt,value
2018-09-13T00:00:14.264Z,55.60
2018-09-13T00:02:42.528Z,55.80
2018-09-13T00:05:10.800Z,55.60
2018-09-13T00:07:39.250Z,55.60
2018-09-13T00:10:07.656Z,55.70
2018-09-13T00:12:35.932Z,55.70
2018-09-13T00:15:04.434Z,56.00
2018-09-13T00:17:32.696Z,56.20
2018-09-13T00:20:00.952Z,56.30
2018-09-13T00:22:29.213Z,56.40
2018-09-13T00:24:57.597Z,56.10
2018-09-13T00:27:25.856Z,55.90
2018-09-13T00:29:54.147Z,55.60
2018-09-13T00:32:22.432Z,55.40
2018-09-13T00:34:50.700Z,55.30
2018-09-13T00:37:19.020Z,55.50
2018-09-13T00:39:47.293Z,55.70
2018-09-13T00:42:15.570Z,56.00
2018-09-13T00:44:43.828Z,56.30
2018-09-13T00:47:12.549Z,56.20
2018-09-13T00:49:41.508Z,56.10
2018-09-13T00:52:09.780Z,56.30
2018-09-13T00:54:38.051Z,56.40
2018-09-13T00:57:06.316Z,56.50
2018-09-13T00:59:34.591Z,56.50
2018-09-13T01:02:02.855Z,57.30
2018-09-13T01:04:31.178Z,56.70
2018-09-13T01:06:59.428Z,56.60
2018-09-13T01:09:27.696Z,56.20
2018-09-13T01:11:55.970Z,55.90
2018-09-13T01:14:24.218Z,55.70
2018-09-13T01:16:52.487Z,55.60
2018-09-13T01:19:20.768Z,56.00
2018-09-13T01:21:49.044Z,56.70
2018-09-13T01:24:17.364Z,56.50
2018-09-13T01:26:45.632Z,56.40
2018-09-13T01:29:13.908Z,56.30
2018-09-13T01:31:42.170Z,56.20
2018-09-13T01:34:10.450Z,56.60
2018-09-13T01:36:38.698Z,56.70
2018-09-13T01:39:08.345Z,56.80
2018-09-13T01:41:36.612Z,56.80
2018-09-13T01:44:04.862Z,56.90
2018-09-13T01:46:33.136Z,56.80
2018-09-13T01:49:01.398Z,56.60
2018-09-13T01:51:29.680Z,56.20
2018-09-13T01:53:57.948Z,56.10
2018-09-13T01:56:26.237Z,56.00
2018-09-13T01:58:54.708Z,56.30
2018-09-13T02:01:22.962Z,56.20
2018-09-13T02:03:51.240Z,56.10
2018-09-13T02:06:19.515Z,56.40
2018-09-13T02:08:47.807Z,56.50
2018-09-13T02:11:16.073Z,56.60
2018-09-13T02:13:44.355Z,56.70
2018-09-13T02:16:12.612Z,56.50
2018-09-13T02:18:40.876Z,56.40
2018-09-13T02:21:09.142Z,57.30
2018-09-13T02:23:37.406Z,56.80
2018-09-13T02:26:05.860Z,56.90
2018-09-13T02:28:34.120Z,56.90
2018-09-13T02:31:02.372Z,57.00
2018-09-13T02:33:30.641Z,56.90
2018-09-13T02:35:58.911Z,56.60
2018-09-13T02:38:27.192Z,56.40
2018-09-13T02:40:55.492Z,56.20
2018-09-13T02:43:23.744Z,56.20
2018-09-13T02:45:52.124Z,56.50
2018-09-13T02:48:20.368Z,56.40
2018-09-13T02:50:48.651Z,56.40
2018-09-13T02:53:16.917Z,56.40
2018-09-13T02:55:45.213Z,56.70
2018-09-13T02:58:13.476Z,56.80
2018-09-13T03:00:41.732Z,56.90
2018-09-13T03:03:10.019Z,56.90
2018-09-13T03:05:39.177Z,56.70
2018-09-13T03:08:07.465Z,56.90
2018-09-13T03:10:35.711Z,56.90
2018-09-13T03:13:04.256Z,57.10
2018-09-13T03:15:32.532Z,57.10
2018-09-13T03:18:01.641Z,57.30
2018-09-13T03:20:29.925Z,57.70
2018-09-13T03:22:58.196Z,57.00
2018-09-13T03:25:26.460Z,56.80
2018-09-13T03:27:54.767Z,56.50
2018-09-13T03:30:23.081Z,56.40
2018-09-13T03:32:51.355Z,56.20
2018-09-13T03:35:19.613Z,56.60
2018-09-13T03:37:47.910Z,56.70
2018-09-13T03:40:16.165Z,56.80
2018-09-13T03:42:44.439Z,56.80
2018-09-13T03:45:12.709Z,56.70
2018-09-13T03:47:41.074Z,56.80
2018-09-13T03:50:09.355Z,56.90
2018-09-13T03:52:37.700Z,56.90
2018-09-13T03:55:05.977Z,57.00
2018-09-13T03:57:34.468Z,57.10
2018-09-13T04:00:02.753Z,57.80
2018-09-13T04:02:31.079Z,57.20
2018-09-13T04:04:59.473Z,56.90
2018-09-13T04:07:28.239Z,56.60
2018-09-13T04:09:56.503Z,56.40
2018-09-13T04:12:24.829Z,56.40
2018-09-13T04:14:53.091Z,56.80
2018-09-13T04:17:21.365Z,56.60
2018-09-13T04:19:49.621Z,56.50
2018-09-13T04:22:18.271Z,56.60
2018-09-13T04:24:47.345Z,57.40
2018-09-13T04:27:15.623Z,56.90
2018-09-13T04:29:43.915Z,57.10
2018-09-13T04:32:12.407Z,56.90
2018-09-13T04:34:40.678Z,56.90
2018-09-13T04:37:09.437Z,57.00
2018-09-13T04:39:37.725Z,57.10
2018-09-13T04:42:05.994Z,57.80
2018-09-13T04:44:34.279Z,57.30
2018-09-13T04:47:02.535Z,57.30
2018-09-13T04:49:30.809Z,57.20
2018-09-13T04:51:59.077Z,56.90
2018-09-13T04:54:27.343Z,57.40
2018-09-13T04:56:55.661Z,56.40
2018-09-13T04:59:23.918Z,56.60
2018-09-13T05:01:52.196Z,56.70
2018-09-13T05:04:20.464Z,56.50
2018-09-13T05:06:48.786Z,56.50
2018-09-13T05:09:17.080Z,56.60
2018-09-13T05:11:45.379Z,56.80
2018-09-13T05:14:13.669Z,56.80
2018-09-13T05:16:41.936Z,57.00
2018-09-13T05:19:10.207Z,57.10
2018-09-13T05:21:38.494Z,57.00
2018-09-13T05:24:06.849Z,56.90
2018-09-13T05:26:36.095Z,56.80
2018-09-13T05:29:04.379Z,56.80
2018-09-13T05:31:32.933Z,56.90
2018-09-13T05:34:01.199Z,57.20
2018-09-13T05:36:30.327Z,57.00
2018-09-13T05:38:58.611Z,57.00
2018-09-13T05:41:26.867Z,57.20
2018-09-13T05:43:55.134Z,57.40
2018-09-13T05:46:23.401Z,57.40
2018-09-13T05:48:51.679Z,57.60
2018-09-13T05:51:19.972Z,57.50
2018-09-13T05:53:48.288Z,57.50
2018-09-13T05:56:16.547Z,57.60
2018-09-13T05:58:44.824Z,57.70
2018-09-13T06:01:13.184Z,57.80
2018-09-13T06:03:41.457Z,57.90
2018-09-13T06:06:09.770Z,58.10
2018-09-13T06:08:38.057Z,58.00
2018-09-13T06:11:06.340Z,57.80
2018-09-13T06:13:34.684Z,57.40
2018-09-13T06:16:02.916Z,57.20
2018-09-13T06:18:31.197Z,57.00
2018-09-13T06:20:59.476Z,56.90
2018-09-13T06:23:27.753Z,56.90
2018-09-13T06:25:56.011Z,57.20
2018-09-13T06:28:24.289Z,57.40
2018-09-13T06:30:52.765Z,57.80
2018-09-13T06:33:21.031Z,57.60
2018-09-13T06:35:49.359Z,57.60
2018-09-13T06:38:17.677Z,57.80
2018-09-13T06:40:45.987Z,57.90
2018-09-13T06:43:14.488Z,57.90
2018-09-13T06:45:42.803Z,58.00
2018-09-13T06:48:11.060Z,58.40
2018-09-13T06:50:39.340Z,58.40
2018-09-13T06:53:07.613Z,58.70
2018-09-13T06:55:35.872Z,58.00
2018-09-13T06:58:04.157Z,57.80
2018-09-13T07:00:32.468Z,57.70
2018-09-13T07:03:00.780Z,57.60
2018-09-13T07:05:29.066Z,57.80
2018-09-13T07:07:58.032Z,57.90
2018-09-13T07:10:26.317Z,58.10
2018-09-13T07:12:54.792Z,58.20
2018-09-13T07:15:23.108Z,58.20
2018-09-13T07:17:51.384Z,58.00
2018-09-13T07:20:19.656Z,58.20
2018-09-13T07:22:47.928Z,58.40
2018-09-13T07:25:16.184Z,58.50
2018-09-13T07:27:44.467Z,58.70
2018-09-13T07:30:12.748Z,58.80
2018-09-13T07:32:41.046Z,58.70
2018-09-13T07:35:09.319Z,58.40
2018-09-13T07:37:37.619Z,58.10
2018-09-13T07:40:06.522Z,58.00
2018-09-13T07:42:34.902Z,58.00
2018-09-13T07:45:03.152Z,58.20
2018-09-13T07:47:31.418Z,58.20
2018-09-13T07:49:59.806Z,58.20
2018-09-13T07:52:27.976Z,58.20
2018-09-13T07:54:56.246Z,58.40
2018-09-13T07:57:24.560Z,58.50
2018-09-13T07:59:53.061Z,58.80
2018-09-13T08:02:21.345Z,58.80
2018-09-13T08:04:49.615Z,58.50
2018-09-13T08:07:17.917Z,58.50
2018-09-13T08:09:46.207Z,58.40
2018-09-13T08:12:14.541Z,58.40
2018-09-13T08:14:43.820Z,58.70
2018-09-13T08:17:12.188Z,58.80
2018-09-13T08:19:40.479Z,58.70
2018-09-13T08:22:08.872Z,58.60
2018-09-13T08:24:37.055Z,59.10
2018-09-13T08:27:05.337Z,58.80
2018-09-13T08:29:33.650Z,59.00
2018-09-13T08:32:02.003Z,59.30
2018-09-13T08:34:30.279Z,59.10
2018-09-13T08:36:58.558Z,58.90
2018-09-13T08:39:26.824Z,58.50
2018-09-13T08:41:55.089Z,58.50
2018-09-13T08:44:23.463Z,58.50
2018-09-13T08:46:51.728Z,58.60
2018-09-13T08:49:20.038Z,58.50
2018-09-13T08:51:48.339Z,58.50
2018-09-13T08:54:16.660Z,58.50
2018-09-13T08:56:44.954Z,58.80
2018-09-13T08:59:13.219Z,58.90
2018-09-13T09:01:41.488Z,59.50
2018-09-13T09:04:09.768Z,59.30
2018-09-13T09:06:38.061Z,59.30
2018-09-13T09:09:08.782Z,59.30
2018-09-13T09:11:37.084Z,59.30
2018-09-13T09:14:05.382Z,59.30
2018-09-13T09:16:33.660Z,59.40
2018-09-13T09:19:02.006Z,59.60
2018-09-13T09:21:30.298Z,59.60
2018-09-13T09:23:58.582Z,59.30
2018-09-13T09:26:26.878Z,59.10
2018-09-13T09:28:55.180Z,59.00
2018-09-13T09:31:23.440Z,59.20
2018-09-13T09:33:51.768Z,59.80
2018-09-13T09:36:20.040Z,59.20
2018-09-13T09:38:48.556Z,59.10
2018-09-13T09:41:16.854Z,59.80
2018-09-13T09:43:45.140Z,59.20
2018-09-13T09:46:13.420Z,59.60
2018-09-13T09:48:41.708Z,59.90
2018-09-13T09:51:10.059Z,59.70
2018-09-13T09:53:38.345Z,59.70
2018-09-13T09:56:06.637Z,59.90
2018-09-13T09:58:34.904Z,60.00
2018-09-13T10:01:08.698Z,60.00
2018-09-13T10:03:37.004Z,60.30
2018-09-13T10:06:05.252Z,60.10
2018-09-13T10:08:33.536Z,59.90
2018-09-13T10:11:02.882Z,59.40
2018-09-13T10:13:31.152Z,59.40
2018-09-13T10:18:08.684Z,59.10
2018-09-13T10:20:42.324Z,59.60
2018-09-13T10:23:15.757Z,59.10
2018-09-13T10:25:49.469Z,59.40
2018-09-13T10:29:22.883Z,59.50
2018-09-13T10:31:56.427Z,59.80
2018-09-13T10:34:30.240Z,59.60
2018-09-13T10:37:03.981Z,59.70
2018-09-13T10:39:37.601Z,60.00
2018-09-13T10:42:11.315Z,60.10
2018-09-13T10:44:44.865Z,60.40
2018-09-13T10:47:18.472Z,60.80
2018-09-13T10:49:52.038Z,60.50
2018-09-13T10:52:25.292Z,60.00
2018-09-13T10:54:53.480Z,59.90
2018-09-13T10:57:27.026Z,59.70
2018-09-13T10:59:55.339Z,60.10
2018-09-13T11:02:23.701Z,60.20
2018-09-13T11:04:52.009Z,59.90
2018-09-13T11:07:20.280Z,59.80
2018-09-13T11:09:48.920Z,60.00
2018-09-13T11:12:17.554Z,59.80
2018-09-13T11:14:54.549Z,60.00
2018-09-13T11:17:24.099Z,60.40
2018-09-13T11:19:52.394Z,60.40
2018-09-13T11:22:20.679Z,60.00
2018-09-13T11:24:49.136Z,60.90
2018-09-13T11:27:17.520Z,60.90
2018-09-13T11:29:46.221Z,60.30
2018-09-13T11:32:14.821Z,60.50
2018-09-13T11:34:44.023Z,60.60
2018-09-13T11:37:12.329Z,60.00
2018-09-13T11:39:40.607Z,59.40
2018-09-13T11:42:09.186Z,59.40
2018-09-13T11:44:37.470Z,59.50
2018-09-13T11:47:05.882Z,59.40
2018-09-13T11:49:34.160Z,59.50
2018-09-13T11:52:03.123Z,59.40
2018-09-13T11:54:31.434Z,59.40
2018-09-13T11:56:59.691Z,59.50
2018-09-13T11:59:27.985Z,59.80
2018-09-13T12:01:56.286Z,59.80
2018-09-13T12:04:24.535Z,60.40
2018-09-13T12:06:52.789Z,60.40
2018-09-13T12:09:21.086Z,60.10
2018-09-13T12:11:49.337Z,59.90
2018-09-13T12:14:17.600Z,59.80
2018-09-13T12:16:45.884Z,59.80
2018-09-13T12:19:14.165Z,60.10
2018-09-13T12:21:42.421Z,60.00
2018-09-13T12:24:10.717Z,59.90
2018-09-13T12:26:38.981Z,59.90
2018-09-13T12:29:07.287Z,59.80
2018-09-13T12:31:35.569Z,59.90
2018-09-13T12:34:03.882Z,60.00
2018-09-13T12:36:32.149Z,60.50
2018-09-13T12:39:00.437Z,60.50
2018-09-13T12:41:28.745Z,60.10
2018-09-13T12:43:57.016Z,59.90
2018-09-13T12:46:25.342Z,60.50
2018-09-13T12:48:53.677Z,59.80
2018-09-13T12:51:22.121Z,60.40
2018-09-13T12:53:50.469Z,60.50
2018-09-13T12:56:19.233Z,60.30
2018-09-13T12:58:47.771Z,60.20
2018-09-13T13:01:16.032Z,60.90
2018-09-13T13:03:44.307Z,61.20
2018-09-13T13:06:13.293Z,61.70
2018-09-13T13:08:41.862Z,61.90
2018-09-13T13:11:10.153Z,62.00
2018-09-13T13:13:38.465Z,62.00
2018-09-13T13:16:06.769Z,62.20
2018-09-13T13:18:35.402Z,62.20
2018-09-13T13:21:03.695Z,62.30
2018-09-13T13:23:32.089Z,62.90
2018-09-13T13:26:00.459Z,62.90
2018-09-13T13:28:28.737Z,62.70
2018-09-13T13:30:57.041Z,62.50
2018-09-13T13:33:25.380Z,62.00
2018-09-13T13:35:53.749Z,61.70
2018-09-13T13:38:22.052Z,61.80
2018-09-13T13:40:50.334Z,61.70
2018-09-13T13:43:18.721Z,62.00
2018-09-13T13:45:47.060Z,62.60
2018-09-13T13:48:16.346Z,63.00
2018-09-13T13:50:44.670Z,63.10
2018-09-13T13:53:13.281Z,62.90
2018-09-13T13:55:41.576Z,62.80
2018-09-13T13:58:09.915Z,63.30
2018-09-13T14:00:38.184Z,63.40
2018-09-13T14:03:06.574Z,64.20
2018-09-13T14:05:34.858Z,64.20
2018-09-13T14:08:03.172Z,64.40
2018-09-13T14:10:31.740Z,64.10
2018-09-13T14:13:00.225Z,64.00
2018-09-13T14:15:28.505Z,63.80
2018-09-13T14:17:56.794Z,63.70
2018-09-13T14:20:25.138Z,64.80
2018-09-13T14:22:53.438Z,65.00
2018-09-13T14:25:21.759Z,65.40
2018-09-13T14:27:50.116Z,65.70
2018-09-13T14:30:18.414Z,66.00
2018-09-13T14:32:46.746Z,66.00
2018-09-13T14:35:15.143Z,65.90
2018-09-13T14:37:43.460Z,66.10
2018-09-13T14:40:11.757Z,65.90
2018-09-13T14:42:40.824Z,65.90
2018-09-13T14:45:09.191Z,66.20
2018-09-13T14:47:37.479Z,66.30
2018-09-13T14:50:05.826Z,66.70
2018-09-13T14:52:34.146Z,66.90
2018-09-13T14:55:02.435Z,67.00
2018-09-13T14:57:30.759Z,66.70
2018-09-13T14:59:59.058Z,66.40
2018-09-13T15:02:27.381Z,66.20
2018-09-13T15:04:55.698Z,66.10
2018-09-13T15:07:24.042Z,66.60
2018-09-13T15:09:52.368Z,66.90
2018-09-13T15:12:21.484Z,68.00
2018-09-13T15:14:49.784Z,66.90
2018-09-13T15:17:18.132Z,67.00
2018-09-13T15:19:46.467Z,66.90
2018-09-13T15:22:14.724Z,66.80
2018-09-13T15:24:43.204Z,66.80
2018-09-13T15:27:11.512Z,66.90
2018-09-13T15:29:39.857Z,67.00
2018-09-13T15:32:08.252Z,67.20
2018-09-13T15:34:36.585Z,68.10
2018-09-13T15:37:05.211Z,67.00
2018-09-13T15:39:33.490Z,66.60
2018-09-13T15:42:01.808Z,66.50
2018-09-13T15:44:30.183Z,66.70
2018-09-13T15:46:58.655Z,67.00
2018-09-13T15:49:26.954Z,66.90
2018-09-13T15:51:56.264Z,66.90
2018-09-13T15:54:24.644Z,67.00
2018-09-13T15:56:53.029Z,67.10
2018-09-13T15:59:21.442Z,67.20
2018-09-13T16:01:49.770Z,67.50
2018-09-13T16:04:18.168Z,67.90
2018-09-13T16:06:46.549Z,67.20
2018-09-13T16:09:14.907Z,67.10
2018-09-13T16:11:43.236Z,67.20
2018-09-13T16:14:11.559Z,67.30
2018-09-13T16:16:39.860Z,67.70
2018-09-13T16:19:08.189Z,68.50
2018-09-13T16:21:36.534Z,67.40
2018-09-13T16:24:04.838Z,66.90
2018-09-13T16:26:33.143Z,66.80
2018-09-13T16:29:01.421Z,66.80
2018-09-13T16:31:29.775Z,67.10
2018-09-13T16:33:58.074Z,67.20
2018-09-13T16:36:29.845Z,67.70
2018-09-13T16:39:03.670Z,67.20
2018-09-13T16:41:41.597Z,67.10
2018-09-13T16:44:14.112Z,67.30
2018-09-13T16:46:47.814Z,67.60
2018-09-13T16:49:16.113Z,67.60
2018-09-13T16:51:44.402Z,67.50
2018-09-13T16:54:12.716Z,67.70
2018-09-13T16:56:41.001Z,67.40
2018-09-13T16:59:09.313Z,67.30
2018-09-13T17:01:37.606Z,67.40
2018-09-13T17:04:05.901Z,67.70
2018-09-13T17:06:34.293Z,67.70
2018-09-13T17:09:02.773Z,67.50
2018-09-13T17:11:31.339Z,67.20
2018-09-13T17:13:59.864Z,66.80
2018-09-13T17:16:28.527Z,66.60
2018-09-13T17:18:57.373Z,66.50
2018-09-13T17:21:26.057Z,66.60
2018-09-13T17:23:54.858Z,66.90
2018-09-13T17:26:23.232Z,67.00
2018-09-13T17:28:51.541Z,67.20
2018-09-13T17:31:20.078Z,67.40
2018-09-13T17:33:49.391Z,67.20
2018-09-13T17:36:17.679Z,67.20
2018-09-13T17:38:46.021Z,67.40
2018-09-13T17:41:14.350Z,67.50
2018-09-13T17:43:42.724Z,67.70
2018-09-13T17:46:11.151Z,68.10
2018-09-13T17:48:39.505Z,67.90
2018-09-13T17:51:08.521Z,67.50
2018-09-13T17:53:36.879Z,67.30
2018-09-13T17:56:05.202Z,67.20
2018-09-13T17:58:33.558Z,67.30
2018-09-13T18:01:01.974Z,67.60
2018-09-13T18:03:30.330Z,67.40
2018-09-13T18:05:59.664Z,67.30
2018-09-13T18:08:27.973Z,66.90
2018-09-13T18:10:56.397Z,66.90
2018-09-13T18:13:24.777Z,66.70
2018-09-13T18:15:53.137Z,66.90
2018-09-13T18:18:22.305Z,66.50
2018-09-13T18:20:50.814Z,65.90
2018-09-13T18:23:19.261Z,65.40
2018-09-13T18:25:48.198Z,65.10
2018-09-13T18:28:16.575Z,65.10
2018-09-13T18:30:45.944Z,65.20
2018-09-13T18:33:15.834Z,65.10
2018-09-13T18:35:44.279Z,64.90
2018-09-13T18:38:12.958Z,64.90
2018-09-13T18:40:41.327Z,64.80
2018-09-13T18:43:09.730Z,65.00
2018-09-13T18:45:38.172Z,64.80
2018-09-13T18:48:06.571Z,64.80
2018-09-13T18:50:35.017Z,64.20
2018-09-13T18:53:04.171Z,64.60
2018-09-13T18:55:32.696Z,64.60
2018-09-13T18:58:01.188Z,64.50
2018-09-13T19:00:29.830Z,64.60
2018-09-13T19:02:58.312Z,64.70
2018-09-13T19:05:28.939Z,64.50
2018-09-13T19:07:58.212Z,64.20
2018-09-13T19:10:27.291Z,63.70
2018-09-13T19:12:55.695Z,63.40
2018-09-13T19:15:25.070Z,63.30
2018-09-13T19:17:53.486Z,63.50
2018-09-13T19:20:21.967Z,63.30
2018-09-13T19:22:50.412Z,63.20
2018-09-13T19:25:18.817Z,63.40
2018-09-13T19:27:47.797Z,63.50
2018-09-13T19:30:17.210Z,63.40
2018-09-13T19:32:45.792Z,63.60
2018-09-13T19:35:14.171Z,63.60
2018-09-13T19:37:43.034Z,63.40
2018-09-13T19:40:11.524Z,63.10
2018-09-13T19:42:41.200Z,63.50
2018-09-13T19:45:09.614Z,62.70
2018-09-13T19:47:38.019Z,62.80
2018-09-13T19:50:06.495Z,63.20
2018-09-13T19:52:34.947Z,63.20
2018-09-13T19:55:04.456Z,63.10
2018-09-13T19:57:32.828Z,63.10
2018-09-13T20:00:01.233Z,63.30
2018-09-13T20:02:29.616Z,63.40
2018-09-13T20:04:59.350Z,63.70
2018-09-13T20:07:28.348Z,63.60
2018-09-13T20:09:56.800Z,63.50
2018-09-13T20:12:26.140Z,63.50
2018-09-13T20:14:55.000Z,63.60
2018-09-13T20:17:24.501Z,63.70
2018-09-13T20:19:53.075Z,63.70
2018-09-13T20:22:21.750Z,63.80
2018-09-13T20:24:50.172Z,63.50
2018-09-13T20:27:18.569Z,63.20
2018-09-13T20:29:47.148Z,62.70
2018-09-13T20:32:15.512Z,62.40
2018-09-13T20:34:43.999Z,62.30
2018-09-13T20:37:13.720Z,62.30
2018-09-13T20:39:42.097Z,62.50
2018-09-13T20:42:10.488Z,62.70
2018-09-13T20:44:38.865Z,63.00
2018-09-13T20:47:07.262Z,63.00
2018-09-13T20:49:35.691Z,63.00
2018-09-13T20:52:04.913Z,62.90
2018-09-13T20:54:33.418Z,63.00
2018-09-13T20:57:01.770Z,63.00
2018-09-13T20:59:31.252Z,63.10
2018-09-13T21:01:59.640Z,63.20
2018-09-13T21:04:27.942Z,62.90
2018-09-13T21:06:56.357Z,62.50
2018-09-13T21:09:24.771Z,61.90
2018-09-13T21:11:53.144Z,61.60
2018-09-13T21:14:21.441Z,61.50
2018-09-13T21:16:49.742Z,61.60
2018-09-13T21:19:18.050Z,61.60
2018-09-13T21:21:46.456Z,61.40
2018-09-13T21:24:14.789Z,61.40
2018-09-13T21:26:43.053Z,61.50
2018-09-13T21:29:12.013Z,61.50
2018-09-13T21:31:40.329Z,61.70
2018-09-13T21:34:08.615Z,61.70
2018-09-13T21:36:36.921Z,61.60
2018-09-13T21:39:08.119Z,61.60
2018-09-13T21:41:36.609Z,61.70
2018-09-13T21:44:04.911Z,61.80
2018-09-13T21:46:33.274Z,61.80
2018-09-13T21:49:01.553Z,61.90
2018-09-13T21:51:29.931Z,62.00
2018-09-13T21:53:59.177Z,61.70
2018-09-13T21:56:27.461Z,61.40
2018-09-13T21:58:55.794Z,60.90
2018-09-13T22:01:24.049Z,60.60
2018-09-13T22:03:52.364Z,61.20
2018-09-13T22:06:20.655Z,60.70
2018-09-13T22:08:48.915Z,61.60
2018-09-13T22:11:18.084Z,60.90
2018-09-13T22:13:46.442Z,61.10
2018-09-13T22:16:14.725Z,61.00
2018-09-13T22:18:43.066Z,61.00
2018-09-13T22:21:11.329Z,61.10
2018-09-13T22:23:39.617Z,61.20
2018-09-13T22:26:07.889Z,61.90
2018-09-13T22:28:36.213Z,61.40
2018-09-13T22:31:04.498Z,61.40
2018-09-13T22:33:32.791Z,61.30
2018-09-13T22:36:01.085Z,61.10
2018-09-13T22:38:29.368Z,60.90
2018-09-13T22:40:57.664Z,60.80
2018-09-13T22:43:29.018Z,60.90
2018-09-13T22:45:57.312Z,60.90
2018-09-13T22:48:25.620Z,60.80
2018-09-13T22:50:53.957Z,60.80
2018-09-13T22:53:22.255Z,61.70
2018-09-13T22:55:50.514Z,61.70
2018-09-13T22:58:18.784Z,61.10
2018-09-13T23:00:47.056Z,61.20
2018-09-13T23:03:15.360Z,61.10
2018-09-13T23:05:43.654Z,61.10
2018-09-13T23:08:11.964Z,60.90
2018-09-13T23:10:40.515Z,61.60
2018-09-13T23:13:08.800Z,61.00
2018-09-13T23:15:37.083Z,60.80
2018-09-13T23:18:05.643Z,60.60
2018-09-13T23:20:33.945Z,60.20
2018-09-13T23:23:02.215Z,59.80
2018-09-13T23:25:30.568Z,59.30
2018-09-13T23:27:58.832Z,59.20
2018-09-13T23:30:27.108Z,59.30
2018-09-13T23:32:55.394Z,59.50
2018-09-13T23:35:23.716Z,59.70
2018-09-13T23:37:52.018Z,59.80
2018-09-13T23:40:20.489Z,59.90
2018-09-13T23:42:48.588Z,59.90
2018-09-13T23:45:16.882Z,59.90
2018-09-13T23:47:45.171Z,59.90
2018-09-13T23:50:13.474Z,60.00
2018-09-13T23:52:41.778Z,60.10
2018-09-13T23:55:10.040Z,60.20
2018-09-13T23:57:38.318Z,60.20
